SCO15GH EGPH-EGCC
Flight info
| Callsign | SCO15GH |
|---|---|
| Flight time | 0h 41m |
| Altitude | 25000 |
| Route | GOSAM P600 FENIK L612 LAKEY |
| Aircraft | B738/M-SDE2E3FGHIRWXY/LB1 |
Departure
| Time | 2026-04-21 17:49 |
|---|---|
| Airport | Edinburgh Airport (EGPH) |
Arrival
| Time | 2026-04-21 18:30 |
|---|---|
| Airport | Manchester Airport (EGCC) |
| Time | Latitude | Longitude | Altitude | Speed | Heading |
|---|---|---|---|---|---|
| 2026-04-21 17:34 | 55.94702 | -3.36608 | 115 ft | 0 kts | 89° |
| 2026-04-21 17:40 | 55.94702 | -3.36618 | 115 ft | 4 kts | 89° |
| 2026-04-21 17:40 | 55.94702 | -3.36665 | 113 ft | 3 kts | 89° |
| 2026-04-21 17:41 | 55.94699 | -3.36703 | 111 ft | 4 kts | 60° |
| 2026-04-21 17:41 | 55.94681 | -3.36731 | 111 ft | 4 kts | 15° |
| 2026-04-21 17:41 | 55.94667 | -3.36735 | 111 ft | 2 kts | 359° |
| 2026-04-21 17:43 | 55.94671 | -3.36735 | 111 ft | 5 kts | 359° |
| 2026-04-21 17:44 | 55.94742 | -3.36743 | 115 ft | 12 kts | 343° |
| 2026-04-21 17:44 | 55.94826 | -3.36778 | 115 ft | 12 kts | 359° |
| 2026-04-21 17:44 | 55.94906 | -3.36817 | 114 ft | 12 kts | 324° |
| 2026-04-21 17:44 | 55.94907 | -3.36950 | 113 ft | 12 kts | 240° |
| 2026-04-21 17:45 | 55.94865 | -3.37078 | 113 ft | 13 kts | 239° |
| 2026-04-21 17:45 | 55.94814 | -3.37228 | 114 ft | 16 kts | 239° |
| 2026-04-21 17:45 | 55.94750 | -3.37413 | 114 ft | 19 kts | 239° |
| 2026-04-21 17:45 | 55.94683 | -3.37612 | 113 ft | 18 kts | 238° |
| 2026-04-21 17:46 | 55.94617 | -3.37804 | 114 ft | 18 kts | 238° |
| 2026-04-21 17:46 | 55.94553 | -3.37990 | 113 ft | 17 kts | 238° |
| 2026-04-21 17:46 | 55.94493 | -3.38170 | 112 ft | 17 kts | 240° |
| 2026-04-21 17:46 | 55.94435 | -3.38343 | 113 ft | 16 kts | 239° |
| 2026-04-21 17:47 | 55.94379 | -3.38509 | 114 ft | 15 kts | 239° |
| 2026-04-21 17:47 | 55.94325 | -3.38669 | 115 ft | 15 kts | 239° |
| 2026-04-21 17:47 | 55.94285 | -3.38828 | 115 ft | 14 kts | 277° |
| 2026-04-21 17:47 | 55.94354 | -3.38940 | 112 ft | 14 kts | 329° |
| 2026-04-21 17:48 | 55.94435 | -3.38910 | 113 ft | 13 kts | 54° |
| 2026-04-21 17:48 | 55.94501 | -3.38720 | 111 ft | 35 kts | 59° |
| 2026-04-21 17:48 | 55.94758 | -3.37962 | 111 ft | 106 kts | 58° |
| 2026-04-21 17:48 | 55.95232 | -3.36540 | 222 ft | 154 kts | 60° |
| 2026-04-21 17:49 | 55.95795 | -3.34881 | 966 ft | 158 kts | 60° |
| 2026-04-21 17:49 | 55.96502 | -3.33391 | 1916 ft | 159 kts | 43° |
| 2026-04-21 17:49 | 55.97414 | -3.32130 | 2563 ft | 177 kts | 42° |
| 2026-04-21 17:49 | 55.98437 | -3.30666 | 2956 ft | 199 kts | 43° |
| 2026-04-21 17:50 | 55.99570 | -3.29074 | 3396 ft | 216 kts | 40° |
| 2026-04-21 17:50 | 56.01030 | -3.28086 | 3812 ft | 245 kts | 7° |
| 2026-04-21 17:50 | 56.02730 | -3.28992 | 4369 ft | 271 kts | 327° |
| 2026-04-21 17:50 | 56.04004 | -3.31525 | 5274 ft | 280 kts | 300° |
| 2026-04-21 17:51 | 56.04514 | -3.34899 | 6171 ft | 286 kts | 270° |
| 2026-04-21 17:51 | 56.04068 | -3.38334 | 7025 ft | 287 kts | 239° |
| 2026-04-21 17:51 | 56.02785 | -3.40999 | 7902 ft | 284 kts | 216° |
| 2026-04-21 17:51 | 56.01203 | -3.43143 | 8686 ft | 288 kts | 212° |
| 2026-04-21 17:52 | 55.99547 | -3.45207 | 9532 ft | 291 kts | 211° |
| 2026-04-21 17:52 | 55.97869 | -3.47267 | 10395 ft | 294 kts | 211° |
| 2026-04-21 17:52 | 55.96168 | -3.49362 | 11033 ft | 305 kts | 211° |
| 2026-04-21 17:52 | 55.94355 | -3.51604 | 11236 ft | 330 kts | 212° |
| 2026-04-21 17:53 | 55.92409 | -3.54028 | 11495 ft | 351 kts | 212° |
| 2026-04-21 17:53 | 55.90383 | -3.56570 | 12083 ft | 360 kts | 212° |
| 2026-04-21 17:53 | 55.88330 | -3.59161 | 12890 ft | 362 kts | 212° |
| 2026-04-21 17:53 | 55.86272 | -3.61762 | 13649 ft | 366 kts | 212° |
| 2026-04-21 17:54 | 55.84180 | -3.64404 | 14360 ft | 370 kts | 212° |
| 2026-04-21 17:54 | 55.82068 | -3.67069 | 15038 ft | 374 kts | 212° |
| 2026-04-21 17:54 | 55.79944 | -3.69745 | 15717 ft | 377 kts | 212° |
| 2026-04-21 17:54 | 55.77790 | -3.72455 | 16387 ft | 380 kts | 212° |
| 2026-04-21 17:55 | 55.75621 | -3.75180 | 17061 ft | 383 kts | 212° |
| 2026-04-21 17:55 | 55.73434 | -3.77923 | 17730 ft | 387 kts | 212° |
| 2026-04-21 17:55 | 55.71224 | -3.80690 | 18387 ft | 390 kts | 212° |
| 2026-04-21 17:55 | 55.68999 | -3.83473 | 18993 ft | 394 kts | 212° |
| 2026-04-21 17:56 | 55.66749 | -3.86283 | 19574 ft | 397 kts | 212° |
| 2026-04-21 17:56 | 55.64483 | -3.89109 | 20178 ft | 399 kts | 212° |
| 2026-04-21 17:56 | 55.62215 | -3.91935 | 20739 ft | 401 kts | 212° |
| 2026-04-21 17:56 | 55.59924 | -3.94785 | 21317 ft | 403 kts | 212° |
| 2026-04-21 17:57 | 55.57622 | -3.97645 | 21931 ft | 404 kts | 212° |
| 2026-04-21 17:57 | 55.55326 | -4.00492 | 22704 ft | 401 kts | 212° |
| 2026-04-21 17:57 | 55.53033 | -4.03257 | 23296 ft | 399 kts | 207° |
| 2026-04-21 17:57 | 55.50477 | -4.04924 | 23485 ft | 390 kts | 187° |
| 2026-04-21 17:58 | 55.47780 | -4.04976 | 23479 ft | 388 kts | 169° |
| 2026-04-21 17:58 | 55.45202 | -4.03656 | 23467 ft | 385 kts | 153° |
| 2026-04-21 17:58 | 55.42840 | -4.01473 | 23467 ft | 386 kts | 149° |
| 2026-04-21 17:58 | 55.40466 | -3.99109 | 23496 ft | 398 kts | 149° |
| 2026-04-21 17:59 | 55.38023 | -3.96655 | 23488 ft | 409 kts | 149° |
| 2026-04-21 17:59 | 55.35520 | -3.94169 | 23471 ft | 419 kts | 149° |
| 2026-04-21 17:59 | 55.33473 | -3.92162 | 23463 ft | 423 kts | 150° |
| 2026-04-21 17:59 | 55.30903 | -3.89670 | 23449 ft | 419 kts | 150° |
| 2026-04-21 18:00 | 55.28349 | -3.87209 | 23467 ft | 420 kts | 150° |
| 2026-04-21 18:00 | 55.25808 | -3.84766 | 23473 ft | 423 kts | 150° |
| 2026-04-21 18:00 | 55.23236 | -3.82300 | 23458 ft | 420 kts | 150° |
| 2026-04-21 18:00 | 55.20672 | -3.79844 | 23459 ft | 421 kts | 150° |
| 2026-04-21 18:01 | 55.18091 | -3.77372 | 23458 ft | 422 kts | 150° |
| 2026-04-21 18:01 | 55.15528 | -3.74918 | 23458 ft | 421 kts | 150° |
| 2026-04-21 18:01 | 55.12942 | -3.72445 | 23466 ft | 425 kts | 150° |
| 2026-04-21 18:01 | 55.10362 | -3.69981 | 23452 ft | 421 kts | 150° |
| 2026-04-21 18:02 | 55.07792 | -3.67533 | 23462 ft | 421 kts | 150° |
| 2026-04-21 18:02 | 55.05211 | -3.65075 | 23467 ft | 425 kts | 150° |
| 2026-04-21 18:02 | 55.02621 | -3.62611 | 23445 ft | 420 kts | 150° |
| 2026-04-21 18:02 | 55.00088 | -3.60208 | 23443 ft | 411 kts | 150° |
| 2026-04-21 18:03 | 54.97558 | -3.57813 | 23461 ft | 417 kts | 150° |
| 2026-04-21 18:03 | 54.94988 | -3.55391 | 23459 ft | 424 kts | 150° |
| 2026-04-21 18:03 | 54.92402 | -3.52965 | 23444 ft | 421 kts | 150° |
| 2026-04-21 18:03 | 54.89822 | -3.50548 | 23453 ft | 421 kts | 150° |
| 2026-04-21 18:04 | 54.87243 | -3.48132 | 23449 ft | 420 kts | 150° |
| 2026-04-21 18:04 | 54.84670 | -3.45725 | 23437 ft | 421 kts | 150° |
| 2026-04-21 18:04 | 54.82084 | -3.43308 | 23445 ft | 423 kts | 150° |
| 2026-04-21 18:04 | 54.79496 | -3.40892 | 23434 ft | 420 kts | 150° |
| 2026-04-21 18:05 | 54.76924 | -3.38496 | 23440 ft | 421 kts | 150° |
| 2026-04-21 18:05 | 54.74335 | -3.36086 | 23449 ft | 425 kts | 151° |
| 2026-04-21 18:05 | 54.71729 | -3.33705 | 23425 ft | 422 kts | 153° |
| 2026-04-21 18:05 | 54.69068 | -3.31607 | 23437 ft | 419 kts | 155° |
| 2026-04-21 18:06 | 54.66375 | -3.29607 | 23442 ft | 424 kts | 156° |
| 2026-04-21 18:06 | 54.63643 | -3.27604 | 23433 ft | 427 kts | 156° |
| 2026-04-21 18:06 | 54.60912 | -3.25595 | 23419 ft | 425 kts | 155° |
| 2026-04-21 18:06 | 54.58199 | -3.23580 | 23427 ft | 426 kts | 155° |
| 2026-04-21 18:07 | 54.55474 | -3.21542 | 23426 ft | 428 kts | 155° |
| 2026-04-21 18:07 | 54.52739 | -3.19496 | 23430 ft | 430 kts | 155° |
| 2026-04-21 18:07 | 54.49990 | -3.17443 | 23427 ft | 432 kts | 155° |
| 2026-04-21 18:07 | 54.47225 | -3.15382 | 23430 ft | 434 kts | 155° |
| 2026-04-21 18:08 | 54.44454 | -3.13320 | 23416 ft | 432 kts | 156° |
| 2026-04-21 18:08 | 54.41707 | -3.11279 | 23305 ft | 428 kts | 156° |
| 2026-04-21 18:08 | 54.38974 | -3.09248 | 23068 ft | 426 kts | 156° |
| 2026-04-21 18:08 | 54.36326 | -3.07286 | 22841 ft | 413 kts | 156° |
| 2026-04-21 18:09 | 54.33732 | -3.05364 | 22609 ft | 400 kts | 156° |
| 2026-04-21 18:09 | 54.31211 | -3.03499 | 22380 ft | 389 kts | 155° |
| 2026-04-21 18:09 | 54.28755 | -3.01684 | 22155 ft | 380 kts | 155° |
| 2026-04-21 18:09 | 54.26361 | -2.99917 | 21932 ft | 370 kts | 155° |
| 2026-04-21 18:10 | 54.24010 | -2.98175 | 21718 ft | 367 kts | 154° |
| 2026-04-21 18:10 | 54.21753 | -2.96058 | 21512 ft | 364 kts | 147° |
| 2026-04-21 18:10 | 54.19663 | -2.93723 | 21137 ft | 365 kts | 144° |
| 2026-04-21 18:10 | 54.17573 | -2.91274 | 20761 ft | 364 kts | 144° |
| 2026-04-21 18:11 | 54.15493 | -2.88833 | 20374 ft | 361 kts | 144° |
| 2026-04-21 18:11 | 54.13426 | -2.86442 | 19995 ft | 357 kts | 144° |
| 2026-04-21 18:11 | 54.11376 | -2.84100 | 19627 ft | 353 kts | 145° |
| 2026-04-21 18:11 | 54.09338 | -2.81799 | 19254 ft | 349 kts | 144° |
| 2026-04-21 18:12 | 54.07320 | -2.79534 | 18888 ft | 346 kts | 145° |
| 2026-04-21 18:12 | 54.05317 | -2.77295 | 18505 ft | 343 kts | 145° |
| 2026-04-21 18:12 | 54.03331 | -2.75081 | 18089 ft | 340 kts | 144° |
| 2026-04-21 18:12 | 54.01361 | -2.72890 | 17684 ft | 337 kts | 144° |
| 2026-04-21 18:13 | 53.99405 | -2.70716 | 17277 ft | 334 kts | 144° |
| 2026-04-21 18:13 | 53.97470 | -2.68568 | 16883 ft | 332 kts | 144° |
| 2026-04-21 18:13 | 53.95541 | -2.66429 | 16490 ft | 330 kts | 144° |
| 2026-04-21 18:13 | 53.93626 | -2.64307 | 16096 ft | 327 kts | 144° |
| 2026-04-21 18:14 | 53.89863 | -2.60144 | 15429 ft | 313 kts | 144° |
| 2026-04-21 18:14 | 53.88090 | -2.58189 | 15384 ft | 296 kts | 144° |
| 2026-04-21 18:14 | 53.86393 | -2.56322 | 15370 ft | 287 kts | 144° |
| 2026-04-21 18:15 | 53.84719 | -2.54478 | 15324 ft | 292 kts | 144° |
| 2026-04-21 18:15 | 53.82967 | -2.52540 | 14873 ft | 305 kts | 144° |
| 2026-04-21 18:15 | 53.81194 | -2.50590 | 14468 ft | 302 kts | 144° |
| 2026-04-21 18:15 | 53.79439 | -2.48663 | 14044 ft | 299 kts | 144° |
| 2026-04-21 18:16 | 53.77705 | -2.46762 | 13569 ft | 294 kts | 144° |
| 2026-04-21 18:16 | 53.76000 | -2.44893 | 13119 ft | 290 kts | 143° |
| 2026-04-21 18:16 | 53.74318 | -2.43047 | 12669 ft | 288 kts | 143° |
| 2026-04-21 18:16 | 53.72641 | -2.41209 | 12232 ft | 287 kts | 143° |
| 2026-04-21 18:17 | 53.70971 | -2.39384 | 11806 ft | 285 kts | 144° |
| 2026-04-21 18:17 | 53.69306 | -2.37566 | 11374 ft | 283 kts | 144° |
| 2026-04-21 18:17 | 53.67659 | -2.35768 | 10951 ft | 282 kts | 144° |
| 2026-04-21 18:17 | 53.65950 | -2.34168 | 10527 ft | 283 kts | 157° |
| 2026-04-21 18:18 | 53.64005 | -2.33594 | 10113 ft | 287 kts | 177° |
| 2026-04-21 18:18 | 53.62042 | -2.34209 | 9644 ft | 291 kts | 198° |
| 2026-04-21 18:18 | 53.60296 | -2.35954 | 9198 ft | 294 kts | 215° |
| 2026-04-21 18:18 | 53.58772 | -2.38235 | 8767 ft | 293 kts | 218° |
| 2026-04-21 18:19 | 53.57316 | -2.40542 | 8419 ft | 289 kts | 219° |
| 2026-04-21 18:19 | 53.55878 | -2.42853 | 8391 ft | 284 kts | 219° |
| 2026-04-21 18:19 | 53.54454 | -2.45150 | 8385 ft | 286 kts | 220° |
| 2026-04-21 18:19 | 53.52993 | -2.47501 | 8237 ft | 295 kts | 220° |
| 2026-04-21 18:20 | 53.51496 | -2.49900 | 8020 ft | 299 kts | 220° |
| 2026-04-21 18:20 | 53.49987 | -2.52319 | 7826 ft | 299 kts | 220° |
| 2026-04-21 18:20 | 53.48491 | -2.54719 | 7615 ft | 295 kts | 219° |
| 2026-04-21 18:20 | 53.47019 | -2.57085 | 7370 ft | 293 kts | 220° |
| 2026-04-21 18:21 | 53.45550 | -2.59449 | 7071 ft | 293 kts | 220° |
| 2026-04-21 18:21 | 53.44082 | -2.61816 | 6775 ft | 293 kts | 220° |
| 2026-04-21 18:21 | 53.42529 | -2.63982 | 6449 ft | 288 kts | 206° |
| 2026-04-21 18:21 | 53.40695 | -2.65146 | 6141 ft | 278 kts | 184° |
| 2026-04-21 18:22 | 53.38789 | -2.65382 | 5847 ft | 273 kts | 176° |
| 2026-04-21 18:22 | 53.36891 | -2.65432 | 5535 ft | 273 kts | 175° |
| 2026-04-21 18:22 | 53.34992 | -2.65467 | 5235 ft | 273 kts | 175° |
| 2026-04-21 18:22 | 53.33133 | -2.65186 | 5024 ft | 263 kts | 162° |
| 2026-04-21 18:23 | 53.31372 | -2.64494 | 4816 ft | 258 kts | 160° |
| 2026-04-21 18:23 | 53.29645 | -2.63772 | 4626 ft | 255 kts | 160° |
| 2026-04-21 18:23 | 53.27933 | -2.63054 | 4415 ft | 252 kts | 160° |
| 2026-04-21 18:23 | 53.26249 | -2.62351 | 4212 ft | 246 kts | 160° |
| 2026-04-21 18:24 | 53.24637 | -2.61694 | 3992 ft | 231 kts | 160° |
| 2026-04-21 18:24 | 53.23116 | -2.61092 | 3773 ft | 218 kts | 158° |
| 2026-04-21 18:24 | 53.21884 | -2.59893 | 3549 ft | 198 kts | 120° |
| 2026-04-21 18:24 | 53.21561 | -2.57770 | 3384 ft | 195 kts | 79° |
| 2026-04-21 18:25 | 53.22104 | -2.55671 | 3222 ft | 201 kts | 65° |
| 2026-04-21 18:25 | 53.22828 | -2.53669 | 3065 ft | 202 kts | 58° |
| 2026-04-21 18:25 | 53.23674 | -2.51822 | 3026 ft | 201 kts | 56° |
| 2026-04-21 18:25 | 53.24511 | -2.50086 | 3004 ft | 183 kts | 56° |
| 2026-04-21 18:26 | 53.25281 | -2.48491 | 2999 ft | 172 kts | 57° |
| 2026-04-21 18:26 | 53.26017 | -2.46956 | 2976 ft | 169 kts | 56° |
| 2026-04-21 18:26 | 53.26750 | -2.45426 | 2822 ft | 167 kts | 56° |
| 2026-04-21 18:26 | 53.27450 | -2.43970 | 2602 ft | 155 kts | 57° |
| 2026-04-21 18:27 | 53.28096 | -2.42627 | 2426 ft | 142 kts | 57° |
| 2026-04-21 18:27 | 53.28693 | -2.41385 | 2221 ft | 134 kts | 58° |
| 2026-04-21 18:27 | 53.29278 | -2.40162 | 2033 ft | 134 kts | 57° |
| 2026-04-21 18:27 | 53.29863 | -2.38944 | 1852 ft | 134 kts | 57° |
| 2026-04-21 18:28 | 53.30450 | -2.37722 | 1654 ft | 136 kts | 56° |
| 2026-04-21 18:28 | 53.31046 | -2.36481 | 1480 ft | 139 kts | 54° |
| 2026-04-21 18:28 | 53.31652 | -2.35226 | 1266 ft | 138 kts | 56° |
| 2026-04-21 18:28 | 53.32250 | -2.33984 | 1057 ft | 137 kts | 55° |
| 2026-04-21 18:29 | 53.32850 | -2.32732 | 884 ft | 139 kts | 56° |
| 2026-04-21 18:29 | 53.33467 | -2.31453 | 672 ft | 142 kts | 54° |
| 2026-04-21 18:29 | 53.34099 | -2.30164 | 488 ft | 142 kts | 54° |
| 2026-04-21 18:29 | 53.34706 | -2.28883 | 299 ft | 141 kts | 53° |
| 2026-04-21 18:30 | 53.35286 | -2.27676 | 239 ft | 114 kts | 51° |
| 2026-04-21 18:30 | 53.35653 | -2.26923 | 244 ft | 52 kts | 51° |
| 2026-04-21 18:30 | 53.35786 | -2.26690 | 251 ft | 19 kts | 15° |
| 2026-04-21 18:30 | 53.35911 | -2.26705 | 254 ft | 11 kts | 349° |
| 2026-04-21 18:31 | 53.35940 | -2.26715 | 254 ft | 4 kts | 349° |
| 2026-04-21 18:31 | 53.35943 | -2.26715 | 254 ft | 0 kts | 350° |
| 2026-04-21 18:32 | 53.35986 | -2.26741 | 253 ft | 11 kts | 339° |
| 2026-04-21 18:32 | 53.36054 | -2.26693 | 252 ft | 11 kts | 49° |
| 2026-04-21 18:32 | 53.36080 | -2.26629 | 252 ft | 5 kts | 38° |
| 2026-04-21 18:33 | 53.36113 | -2.26640 | 252 ft | 5 kts | 343° |
| 2026-04-21 18:33 | 53.36144 | -2.26667 | 251 ft | 5 kts | 326° |
| 2026-04-21 18:33 | 53.36158 | -2.26682 | 251 ft | 1 kts | 327° |
| 2026-04-21 18:33 | 53.36164 | -2.26689 | 251 ft | 0 kts | 327° |